FFC weather

Peachtree City Falcon Field
Atlanta, Georgia, United States

Public forecast

Using degrees Fahrenheit for public forecast. Weather courtesy of forecast.io.

Current aviation weather report (METAR) for Peachtree City Falcon Field

Retrieved 2019/11/17 10:53 UTC (24 minutes ago):

KFFC 171053Z AUTO 00000KT 10SM OVC032 08/07 A3007 RMK AO2 SLP184 T00830067

Closest aviation forecast (TAF) to Peachtree City Falcon Field

Closest forecast is Hartsfield Jackson Atlanta International Airport, 18.3 nm (33.8 km) NNE. Retrieved 2019/11/17 06:24 UTC (5 hours ago):

TAF KATL 170521Z 1706/1812 03005KT P6SM BKN045 FM171900 32007KT P6SM SCT045 SCT250 FM180000 35003KT P6SM SCT040 SCT250 FM180600 28003KT P6SM BKN040